Time;durP1;ratioP1;P1;durP2;ratioP2;P2;SDS_P1;SDS_P2;PMS_P1;PMS_P2;Temp;Humidity;BMP_temperature;BMP_pressure;BME280_temperature;BME280_humidity;BME280_pressure;Samples;Min_cycle;Max_cycle;Signal;HPM_P1;HPM_P2
2021/05/05 00:01:05;;;;;;;0.10;0.10;;;;;;;;;;5078435;28;20211;-68
2021/05/05 00:03:31;;;;;;;0.10;0.10;;;;;;;;;;5086255;28;20204;-68
2021/05/05 00:05:57;;;;;;;0.10;0.10;;;;;;;;;;5086724;28;20391;-68
2021/05/05 00:08:23;;;;;;;0.10;0.10;;;;;;;;;;5086563;28;20270;-68
2021/05/05 00:10:49;;;;;;;0.10;0.10;;;;;;;;;;5086501;28;20210;-67
2021/05/05 00:13:16;;;;;;;0.10;0.10;;;;;;;;;;5086398;28;20207;-68
2021/05/05 00:15:42;;;;;;;0.10;0.10;;;;;;;;;;5073529;28;20230;-68
2021/05/05 00:18:08;;;;;;;0.10;0.10;;;;;;;;;;5084902;28;20506;-69
2021/05/05 00:20:34;;;;;;;0.10;0.10;;;;;;;;;;5081366;28;20206;-69
2021/05/05 00:22:59;;;;;;;0.10;0.10;;;;;;;;;;5086241;28;20237;-69
2021/05/05 00:25:25;;;;;;;0.10;0.10;;;;;;;;;;5080060;28;20250;-70
2021/05/05 00:27:51;;;;;;;0.10;0.10;;;;;;;;;;5072332;28;20231;-69
2021/05/05 00:30:20;;;;;;;0.10;0.10;;;;;;;;;;5085508;28;20309;-70
2021/05/05 00:32:45;;;;;;;0.10;0.10;;;;;;;;;;5085783;28;20261;-69
2021/05/05 00:35:12;;;;;;;0.10;0.10;;;;;;;;;;5083544;28;20408;-69
2021/05/05 00:37:38;;;;;;;0.10;0.10;;;;;;;;;;5085656;28;20214;-70
2021/05/05 00:40:04;;;;;;;0.10;0.10;;;;;;;;;;5084040;28;20222;-69
2021/05/05 00:42:30;;;;;;;0.10;0.10;;;;;;;;;;5076009;28;20204;-69
2021/05/05 00:44:56;;;;;;;0.10;0.10;;;;;;;;;;5085634;28;20502;-69
2021/05/05 00:47:24;;;;;;;0.17;0.17;;;;;;;;;;5085482;28;20501;-69
2021/05/05 00:49:49;;;;;;;0.10;0.10;;;;;;;;;;5078837;28;20224;-69
2021/05/05 00:52:15;;;;;;;0.10;0.10;;;;;;;;;;5076160;28;20222;-69
2021/05/05 00:54:41;;;;;;;0.10;0.10;;;;;;;;;;5085360;28;20537;-69
2021/05/05 00:57:07;;;;;;;0.10;0.10;;;;;;;;;;5085491;28;20288;-70
2021/05/05 00:59:33;;;;;;;0.10;0.10;;;;;;;;;;5083684;28;20206;-69
2021/05/05 01:01:59;;;;;;;0.10;0.10;;;;;;;;;;5077098;28;20207;-70
2021/05/05 01:04:25;;;;;;;0.10;0.10;;;;;;;;;;5085265;28;20195;-69
2021/05/05 01:06:52;;;;;;;0.10;0.10;;;;;;;;;;5085163;28;20216;-69
2021/05/05 01:09:18;;;;;;;0.10;0.10;;;;;;;;;;5082520;28;20218;-69
2021/05/05 01:11:44;;;;;;;0.10;0.10;;;;;;;;;;5083880;28;20512;-69
2021/05/05 01:14:09;;;;;;;0.10;0.10;;;;;;;;;;5085181;28;20237;-69
2021/05/05 01:16:36;;;;;;;0.10;0.10;;;;;;;;;;5077495;28;20203;-69
2021/05/05 01:19:02;;;;;;;0.10;0.10;;;;;;;;;;5073090;28;20223;-69
2021/05/05 01:21:28;;;;;;;0.10;0.10;;;;;;;;;;5074180;28;20329;-69
2021/05/05 01:23:54;;;;;;;0.20;0.20;;;;;;;;;;5081849;28;20503;-69
2021/05/05 01:26:20;;;;;;;0.10;0.10;;;;;;;;;;5084879;28;20233;-70
2021/05/05 01:28:46;;;;;;;0.10;0.10;;;;;;;;;;5084882;28;20389;-69
2021/05/05 01:31:14;;;;;;;0.10;0.10;;;;;;;;;;5084954;28;20199;-69
2021/05/05 01:33:39;;;;;;;0.10;0.10;;;;;;;;;;5091384;28;20400;-69
2021/05/05 01:36:06;;;;;;;0.10;0.10;;;;;;;;;;5090404;28;20222;-70
2021/05/05 01:38:32;;;;;;;0.10;0.10;;;;;;;;;;5082069;28;20517;-69
2021/05/05 01:40:58;;;;;;;0.10;0.10;;;;;;;;;;5085061;28;20206;-70
2021/05/05 01:43:24;;;;;;;0.10;0.10;;;;;;;;;;5090977;28;20222;-70
2021/05/05 01:45:50;;;;;;;0.10;0.10;;;;;;;;;;5084625;28;20199;-69
2021/05/05 01:48:17;;;;;;;0.50;0.50;;;;;;;;;;5087965;28;20348;-69
2021/05/05 01:50:43;;;;;;;0.10;0.10;;;;;;;;;;5093353;28;20215;-69
2021/05/05 01:53:09;;;;;;;0.10;0.10;;;;;;;;;;5090500;28;20209;-69
2021/05/05 01:55:35;;;;;;;0.10;0.10;;;;;;;;;;5079109;28;20411;-69
2021/05/05 01:58:01;;;;;;;0.20;0.20;;;;;;;;;;5087952;28;20529;-69
2021/05/05 02:00:28;;;;;;;0.10;0.10;;;;;;;;;;5091780;28;20212;-69
2021/05/05 02:02:54;;;;;;;0.10;0.10;;;;;;;;;;5091427;28;20209;-69
2021/05/05 02:05:19;;;;;;;0.10;0.10;;;;;;;;;;5087520;28;20201;-69
2021/05/05 02:07:45;;;;;;;0.10;0.10;;;;;;;;;;5089342;28;20276;-69
2021/05/05 02:10:12;;;;;;;0.10;0.10;;;;;;;;;;5083405;28;20209;-71
2021/05/05 02:12:39;;;;;;;0.10;0.10;;;;;;;;;;5078143;28;20343;-67
2021/05/05 02:15:06;;;;;;;0.10;0.10;;;;;;;;;;5090103;28;20230;-69
2021/05/05 02:17:31;;;;;;;0.30;0.30;;;;;;;;;;5090136;28;20199;-69
2021/05/05 02:19:57;;;;;;;0.10;0.10;;;;;;;;;;5092803;28;20247;-68
2021/05/05 02:22:23;;;;;;;0.10;0.10;;;;;;;;;;5083874;28;20303;-69
2021/05/05 02:24:49;;;;;;;0.10;0.10;;;;;;;;;;5084844;28;20208;-69
2021/05/05 02:27:15;;;;;;;0.10;0.10;;;;;;;;;;5088866;28;20518;-68
2021/05/05 02:29:41;;;;;;;0.10;0.10;;;;;;;;;;5083281;28;20278;-68
2021/05/05 02:32:09;;;;;;;0.10;0.10;;;;;;;;;;5091918;28;20206;-68
2021/05/05 02:34:35;;;;;;;0.10;0.10;;;;;;;;;;5082380;28;20229;-68
2021/05/05 02:37:00;;;;;;;0.10;0.10;;;;;;;;;;5088203;28;20372;-68
2021/05/05 02:39:26;;;;;;;0.10;0.10;;;;;;;;;;5089281;28;20278;-68
2021/05/05 02:41:52;;;;;;;0.10;0.10;;;;;;;;;;5073942;28;20429;-68
2021/05/05 02:44:18;;;;;;;0.10;0.10;;;;;;;;;;5081632;28;20511;-68
2021/05/05 02:46:44;;;;;;;0.10;0.10;;;;;;;;;;5081259;28;20201;-68
2021/05/05 02:49:10;;;;;;;0.10;0.10;;;;;;;;;;5080728;28;20206;-67
2021/05/05 02:51:36;;;;;;;0.10;0.10;;;;;;;;;;5080581;28;20476;-68
2021/05/05 02:54:02;;;;;;;0.10;0.10;;;;;;;;;;5075645;28;20405;-68
2021/05/05 02:56:27;;;;;;;0.10;0.10;;;;;;;;;;5081805;28;20245;-68
2021/05/05 02:58:54;;;;;;;0.10;0.10;;;;;;;;;;5077049;28;20494;-69
2021/05/05 03:01:19;;;;;;;0.10;0.10;;;;;;;;;;5082665;28;20337;-68
2021/05/05 03:03:46;;;;;;;0.13;0.13;;;;;;;;;;5077318;28;20266;-69
2021/05/05 03:06:12;;;;;;;0.10;0.10;;;;;;;;;;5072981;28;20206;-68
2021/05/05 03:08:37;;;;;;;0.10;0.10;;;;;;;;;;5081323;28;20197;-69
2021/05/05 03:11:03;;;;;;;0.10;0.10;;;;;;;;;;5080379;28;20207;-69
2021/05/05 03:13:29;;;;;;;0.10;0.10;;;;;;;;;;5083187;28;20237;-68
2021/05/05 03:15:55;;;;;;;0.10;0.10;;;;;;;;;;5081994;28;20253;-69
2021/05/05 03:18:21;;;;;;;0.10;0.10;;;;;;;;;;5081935;28;20219;-68
2021/05/05 03:20:47;;;;;;;0.10;0.10;;;;;;;;;;5088617;28;20452;-69
2021/05/05 03:23:13;;;;;;;0.10;0.10;;;;;;;;;;5075740;28;20245;-69
2021/05/05 03:25:40;;;;;;;0.10;0.10;;;;;;;;;;5072312;28;20446;-69
2021/05/05 03:28:06;;;;;;;0.10;0.10;;;;;;;;;;5078409;28;20203;-69
2021/05/05 03:30:31;;;;;;;0.10;0.10;;;;;;;;;;5076668;28;20241;-69
2021/05/05 03:32:57;;;;;;;0.10;0.10;;;;;;;;;;5085477;28;20272;-69
2021/05/05 03:35:23;;;;;;;0.10;0.10;;;;;;;;;;5074695;28;20232;-69
2021/05/05 03:37:50;;;;;;;0.10;0.10;;;;;;;;;;5073491;28;20405;-69
2021/05/05 03:40:15;;;;;;;0.10;0.10;;;;;;;;;;5074311;28;20204;-70
2021/05/05 03:42:41;;;;;;;0.10;0.10;;;;;;;;;;5067410;28;20270;-69
2021/05/05 03:45:09;;;;;;;0.10;0.10;;;;;;;;;;5072624;28;20258;-69
2021/05/05 03:47:36;;;;;;;0.10;0.10;;;;;;;;;;5080049;28;20218;-69
2021/05/05 03:50:02;;;;;;;0.10;0.10;;;;;;;;;;5071312;28;20200;-69
2021/05/05 03:52:28;;;;;;;0.10;0.10;;;;;;;;;;5083191;28;20366;-70
2021/05/05 03:54:54;;;;;;;0.17;0.17;;;;;;;;;;5087973;28;20268;-69
2021/05/05 03:57:20;;;;;;;0.20;0.20;;;;;;;;;;5082322;28;20280;-69
2021/05/05 03:59:46;;;;;;;0.10;0.10;;;;;;;;;;5075855;28;20205;-70
2021/05/05 04:02:11;;;;;;;0.10;0.10;;;;;;;;;;5080231;28;20213;-69
2021/05/05 04:04:37;;;;;;;0.10;0.10;;;;;;;;;;5082128;28;20239;-69
2021/05/05 04:07:03;;;;;;;0.10;0.10;;;;;;;;;;5081822;28;20501;-69
2021/05/05 04:09:29;;;;;;;0.10;0.10;;;;;;;;;;5077178;28;20516;-69
2021/05/05 04:11:55;;;;;;;0.10;0.10;;;;;;;;;;5080938;28;20229;-69
2021/05/05 04:14:21;;;;;;;0.10;0.10;;;;;;;;;;5077256;28;20272;-69
2021/05/05 04:16:47;;;;;;;0.10;0.10;;;;;;;;;;5084355;28;20214;-69
2021/05/05 04:19:12;;;;;;;0.10;0.10;;;;;;;;;;5086623;28;20505;-69
2021/05/05 04:21:38;;;;;;;0.10;0.10;;;;;;;;;;5080126;28;20213;-69
2021/05/05 04:24:05;;;;;;;0.10;0.10;;;;;;;;;;5083414;28;20241;-69
2021/05/05 04:26:30;;;;;;;0.10;0.10;;;;;;;;;;5086052;28;20249;-69
2021/05/05 04:28:57;;;;;;;0.10;0.10;;;;;;;;;;5076473;28;20210;-69
2021/05/05 04:31:23;;;;;;;0.10;0.10;;;;;;;;;;5077239;28;20210;-69
2021/05/05 04:33:49;;;;;;;0.10;0.10;;;;;;;;;;5087108;28;20260;-68
2021/05/05 04:36:15;;;;;;;0.10;0.10;;;;;;;;;;5091198;28;20477;-69
2021/05/05 04:38:41;;;;;;;0.10;0.10;;;;;;;;;;5091688;28;20244;-69
2021/05/05 04:41:06;;;;;;;0.10;0.10;;;;;;;;;;5095023;28;20217;-69
2021/05/05 04:43:32;;;;;;;0.10;0.10;;;;;;;;;;5089063;28;20202;-69
2021/05/05 04:45:59;;;;;;;0.10;0.10;;;;;;;;;;5080957;28;20194;-69
2021/05/05 04:48:25;;;;;;;0.10;0.10;;;;;;;;;;5092060;28;20484;-69
2021/05/05 04:50:50;;;;;;;0.10;0.10;;;;;;;;;;5074457;28;20203;-69
2021/05/05 04:53:16;;;;;;;0.17;0.17;;;;;;;;;;5085696;28;20210;-69
2021/05/05 04:55:42;;;;;;;0.10;0.10;;;;;;;;;;5084572;28;20297;-70
2021/05/05 04:58:07;;;;;;;0.10;0.10;;;;;;;;;;5080743;28;20211;-68
2021/05/05 05:00:34;;;;;;;0.10;0.10;;;;;;;;;;5079962;28;20207;-70
2021/05/05 05:03:01;;;;;;;0.10;0.10;;;;;;;;;;5085464;28;20569;-69
2021/05/05 05:05:26;;;;;;;0.10;0.10;;;;;;;;;;5076003;28;20207;-69
2021/05/05 05:07:54;;;;;;;0.10;0.10;;;;;;;;;;5082165;28;20232;-69
2021/05/05 05:10:20;;;;;;;0.10;0.10;;;;;;;;;;5073975;28;20199;-70
2021/05/05 05:12:45;;;;;;;0.10;0.10;;;;;;;;;;5085626;28;20229;-69
2021/05/05 05:15:12;;;;;;;0.10;0.10;;;;;;;;;;5085130;28;20226;-69
2021/05/05 05:17:37;;;;;;;0.10;0.10;;;;;;;;;;5085437;28;20213;-69
2021/05/05 05:20:06;;;;;;;0.10;0.10;;;;;;;;;;5085300;28;20443;-69
2021/05/05 05:22:34;;;;;;;1.60;1.60;;;;;;;;;;5071175;28;20230;-69
2021/05/05 05:24:59;;;;;;;0.10;0.10;;;;;;;;;;5085445;28;20206;-69
2021/05/05 05:27:25;;;;;;;0.10;0.10;;;;;;;;;;5079701;28;20206;-69
2021/05/05 05:29:51;;;;;;;0.10;0.10;;;;;;;;;;5083349;28;20269;-68
2021/05/05 05:32:17;;;;;;;0.13;0.13;;;;;;;;;;5078861;28;20228;-69
2021/05/05 05:34:42;;;;;;;0.10;0.10;;;;;;;;;;5071583;28;20227;-68
2021/05/05 05:37:09;;;;;;;0.17;0.17;;;;;;;;;;5079228;28;20248;-68
2021/05/05 05:39:35;;;;;;;0.10;0.10;;;;;;;;;;5084390;28;20206;-69
2021/05/05 05:42:00;;;;;;;0.10;0.10;;;;;;;;;;5084501;28;20210;-68
2021/05/05 05:44:26;;;;;;;0.10;0.10;;;;;;;;;;5081887;28;20304;-69
2021/05/05 05:46:52;;;;;;;0.10;0.10;;;;;;;;;;5074713;28;20210;-69
2021/05/05 05:49:18;;;;;;;0.10;0.10;;;;;;;;;;5084496;28;20396;-69
2021/05/05 05:51:43;;;;;;;0.10;0.10;;;;;;;;;;5084267;28;20401;-69
2021/05/05 05:54:10;;;;;;;0.10;0.10;;;;;;;;;;5082546;28;20203;-70
2021/05/05 05:56:36;;;;;;;0.10;0.10;;;;;;;;;;5081906;28;20260;-69
2021/05/05 05:59:02;;;;;;;0.10;0.10;;;;;;;;;;5080776;28;20382;-68
2021/05/05 06:01:27;;;;;;;0.10;0.10;;;;;;;;;;5081238;28;20482;-69
2021/05/05 06:03:54;;;;;;;0.10;0.10;;;;;;;;;;5071117;28;20209;-69
2021/05/05 06:06:20;;;;;;;0.10;0.10;;;;;;;;;;5081625;28;20230;-69
2021/05/05 06:08:46;;;;;;;0.10;0.10;;;;;;;;;;5079694;28;20199;-68
2021/05/05 06:11:12;;;;;;;0.10;0.10;;;;;;;;;;5077670;28;20207;-69
2021/05/05 06:13:38;;;;;;;0.10;0.10;;;;;;;;;;5077473;28;20280;-69
2021/05/05 06:16:05;;;;;;;0.10;0.10;;;;;;;;;;5081882;28;20268;-69
2021/05/05 06:18:31;;;;;;;0.10;0.10;;;;;;;;;;5080544;28;20218;-69
2021/05/05 06:20:57;;;;;;;0.10;0.10;;;;;;;;;;5079294;28;20206;-69
2021/05/05 06:23:23;;;;;;;0.10;0.10;;;;;;;;;;5080696;28;20244;-72
2021/05/05 06:25:49;;;;;;;0.10;0.10;;;;;;;;;;5081217;28;20224;-69
2021/05/05 06:28:15;;;;;;;0.10;0.10;;;;;;;;;;5078166;28;20207;-68
2021/05/05 06:30:41;;;;;;;0.10;0.10;;;;;;;;;;5081516;28;20233;-69
2021/05/05 06:33:07;;;;;;;0.10;0.10;;;;;;;;;;5082306;28;20210;-69
2021/05/05 06:35:33;;;;;;;0.10;0.10;;;;;;;;;;5080878;28;20223;-69
2021/05/05 06:37:59;;;;;;;0.10;0.10;;;;;;;;;;5076248;28;20206;-68
2021/05/05 06:40:25;;;;;;;0.10;0.10;;;;;;;;;;5082345;28;20217;-67
2021/05/05 06:42:51;;;;;;;0.10;0.10;;;;;;;;;;5076404;28;20397;-69
2021/05/05 06:45:18;;;;;;;0.10;0.10;;;;;;;;;;5071496;28;20200;-69
2021/05/05 06:47:44;;;;;;;0.10;0.10;;;;;;;;;;5077657;28;20207;-68
2021/05/05 06:50:11;;;;;;;0.10;0.10;;;;;;;;;;5081327;28;20517;-68
2021/05/05 06:52:37;;;;;;;0.10;0.10;;;;;;;;;;5080554;28;20209;-68
2021/05/05 06:55:03;;;;;;;0.10;0.10;;;;;;;;;;5077803;28;20219;-69
2021/05/05 06:57:29;;;;;;;0.10;0.10;;;;;;;;;;5082389;28;20221;-69
2021/05/05 06:59:55;;;;;;;0.10;0.10;;;;;;;;;;5083664;28;20214;-70
2021/05/05 07:02:22;;;;;;;0.10;0.10;;;;;;;;;;5075459;28;20211;-70
2021/05/05 07:04:48;;;;;;;0.10;0.10;;;;;;;;;;5069766;28;20203;-69
2021/05/05 07:07:14;;;;;;;0.10;0.10;;;;;;;;;;5082142;28;20203;-68
2021/05/05 07:09:40;;;;;;;0.10;0.10;;;;;;;;;;5075677;28;20207;-68
2021/05/05 07:12:06;;;;;;;0.10;0.10;;;;;;;;;;5077855;28;20200;-68
2021/05/05 07:14:33;;;;;;;0.10;0.10;;;;;;;;;;5080043;28;20330;-70
2021/05/05 07:16:59;;;;;;;0.10;0.10;;;;;;;;;;5069813;28;20288;-68
2021/05/05 07:19:26;;;;;;;0.10;0.10;;;;;;;;;;5091694;28;20203;-68
2021/05/05 07:21:52;;;;;;;0.10;0.10;;;;;;;;;;5096162;28;20251;-67
2021/05/05 07:24:18;;;;;;;0.10;0.10;;;;;;;;;;5081748;28;20509;-70
2021/05/05 07:26:44;;;;;;;0.10;0.10;;;;;;;;;;5080422;28;20209;-69
2021/05/05 07:29:10;;;;;;;0.10;0.10;;;;;;;;;;5077662;28;20199;-69
2021/05/05 07:31:36;;;;;;;0.10;0.10;;;;;;;;;;5148219;22;20477;-68
2021/05/05 07:34:02;;;;;;;0.10;0.10;;;;;;;;;;5018052;28;20205;-68
2021/05/05 07:36:30;;;;;;;0.10;0.10;;;;;;;;;;5019070;28;20229;-68
2021/05/05 07:47:13;;;;;;;0.10;0.10;;;;;;;;;;5014798;28;20260;-69
2021/05/05 07:49:43;;;;;;;0.10;0.10;;;;;;;;;;5021355;28;20268;-68
2021/05/05 07:52:10;;;;;;;0.10;0.10;;;;;;;;;;5016508;28;20377;-68
2021/05/05 07:54:36;;;;;;;0.10;0.10;;;;;;;;;;5016381;28;20235;-68
2021/05/05 07:57:02;;;;;;;0.10;0.10;;;;;;;;;;5014871;28;20419;-70
2021/05/05 07:59:28;;;;;;;0.10;0.10;;;;;;;;;;5013436;28;20275;-69
2021/05/05 08:01:54;;;;;;;0.10;0.10;;;;;;;;;;5025078;28;20212;-69
2021/05/05 08:04:20;;;;;;;0.10;0.10;;;;;;;;;;5022580;28;20364;-69
2021/05/05 08:06:46;;;;;;;0.10;0.10;;;;;;;;;;5017772;28;20202;-70
2021/05/05 08:09:12;;;;;;;0.10;0.10;;;;;;;;;;5017618;28;20213;-68
2021/05/05 08:11:38;;;;;;;0.10;0.10;;;;;;;;;;5022263;28;20539;-68
2021/05/05 08:14:06;;;;;;;0.10;0.10;;;;;;;;;;5019126;28;20216;-68
2021/05/05 08:16:32;;;;;;;0.10;0.10;;;;;;;;;;5022525;28;20252;-69
2021/05/05 08:18:58;;;;;;;0.10;0.10;;;;;;;;;;5020146;28;20512;-68
2021/05/05 08:21:26;;;;;;;0.10;0.10;;;;;;;;;;5015829;28;20249;-70
2021/05/05 08:23:52;;;;;;;0.10;0.10;;;;;;;;;;5020605;28;20208;-69
2021/05/05 08:26:19;;;;;;;0.10;0.10;;;;;;;;;;5017917;28;20209;-68
2021/05/05 08:28:45;;;;;;;0.10;0.10;;;;;;;;;;5019406;28;20208;-68
2021/05/05 08:31:12;;;;;;;0.10;0.10;;;;;;;;;;5021060;28;20479;-69
2021/05/05 08:33:37;;;;;;;0.10;0.10;;;;;;;;;;5021860;28;20222;-68
2021/05/05 08:36:04;;;;;;;0.10;0.10;;;;;;;;;;5018533;28;20537;-70
2021/05/05 08:38:30;;;;;;;0.10;0.10;;;;;;;;;;5014214;28;20206;-68
2021/05/05 08:40:56;;;;;;;0.10;0.10;;;;;;;;;;5026133;28;20206;-70
2021/05/05 08:43:23;;;;;;;0.10;0.10;;;;;;;;;;5029620;28;20206;-67
2021/05/05 08:45:49;;;;;;;0.10;0.10;;;;;;;;;;5021099;28;20214;-69
2021/05/05 08:48:17;;;;;;;0.10;0.10;;;;;;;;;;5018313;28;20303;-69
2021/05/05 08:50:43;;;;;;;0.10;0.10;;;;;;;;;;5017756;28;20209;-68
2021/05/05 08:53:09;;;;;;;0.10;0.10;;;;;;;;;;5025693;28;20571;-68
2021/05/05 08:55:36;;;;;;;0.10;0.10;;;;;;;;;;5017575;28;20525;-68
2021/05/05 08:58:02;;;;;;;0.10;0.10;;;;;;;;;;5012171;28;20208;-68
2021/05/05 09:00:30;;;;;;;0.10;0.10;;;;;;;;;;5018933;28;20497;-68
2021/05/05 09:02:57;;;;;;;0.10;0.10;;;;;;;;;;5027353;28;20278;-68
2021/05/05 09:05:23;;;;;;;0.10;0.10;;;;;;;;;;5022834;28;20284;-67
2021/05/05 09:07:50;;;;;;;0.10;0.10;;;;;;;;;;5021542;28;20333;-68
2021/05/05 09:10:17;;;;;;;0.10;0.10;;;;;;;;;;5015132;28;20202;-69
2021/05/05 09:12:44;;;;;;;0.10;0.10;;;;;;;;;;5018115;28;20213;-70
2021/05/05 09:15:12;;;;;;;0.10;0.10;;;;;;;;;;5025208;28;20299;-69
2021/05/05 09:17:40;;;;;;;0.10;0.10;;;;;;;;;;5031606;28;20239;-68
2021/05/05 09:20:28;;;;;;;0.10;0.10;;;;;;;;;;5029727;28;20218;-68
2021/05/05 09:22:54;;;;;;;0.13;0.13;;;;;;;;;;5003085;28;20200;-68
2021/05/05 09:25:22;;;;;;;0.10;0.10;;;;;;;;;;5013720;28;20203;-67
2021/05/05 09:28:03;;;;;;;0.10;0.10;;;;;;;;;;5030889;28;20496;-68
2021/05/05 09:30:29;;;;;;;0.10;0.10;;;;;;;;;;5032865;28;20209;-66
2021/05/05 09:32:56;;;;;;;0.10;0.10;;;;;;;;;;5020378;28;20248;-66
2021/05/05 09:35:29;;;;;;;0.10;0.10;;;;;;;;;;5019584;28;20249;-65
2021/05/05 09:37:55;;;;;;;0.10;0.10;;;;;;;;;;5023265;28;20418;-66
2021/05/05 09:40:22;;;;;;;0.10;0.10;;;;;;;;;;5028000;28;20392;-65
2021/05/05 09:42:48;;;;;;;0.10;0.10;;;;;;;;;;5031935;28;20206;-64
2021/05/05 09:45:15;;;;;;;0.10;0.10;;;;;;;;;;5008536;28;20205;-67
2021/05/05 09:47:48;;;;;;;0.10;0.10;;;;;;;;;;5020413;28;20215;-69
2021/05/05 09:50:26;;;;;;;0.10;0.10;;;;;;;;;;5014851;28;20231;-70
2021/05/05 09:52:52;;;;;;;0.10;0.10;;;;;;;;;;5025372;28;20213;-70
2021/05/05 09:55:18;;;;;;;0.10;0.10;;;;;;;;;;5022818;28;20419;-69
2021/05/05 09:57:44;;;;;;;0.10;0.10;;;;;;;;;;5006511;28;20210;-70
2021/05/05 10:00:11;;;;;;;0.10;0.10;;;;;;;;;;5027577;28;20201;-69
2021/05/05 10:02:41;;;;;;;0.10;0.10;;;;;;;;;;5016082;28;20387;-68
2021/05/05 10:05:08;;;;;;;0.10;0.10;;;;;;;;;;5021441;28;20203;-67
2021/05/05 10:07:49;;;;;;;0.10;0.10;;;;;;;;;;5009516;28;20205;-69
2021/05/05 10:10:15;;;;;;;0.10;0.10;;;;;;;;;;5022022;28;20208;-69
2021/05/05 10:12:42;;;;;;;0.10;0.10;;;;;;;;;;5016673;28;20218;-70
2021/05/05 10:15:08;;;;;;;0.10;0.10;;;;;;;;;;5023394;28;20344;-70
2021/05/05 10:17:35;;;;;;;0.10;0.10;;;;;;;;;;5024423;28;20273;-69
2021/05/05 10:20:02;;;;;;;0.10;0.10;;;;;;;;;;5011942;28;20216;-68
2021/05/05 10:22:29;;;;;;;0.10;0.10;;;;;;;;;;5021396;28;20291;-71
2021/05/05 10:24:58;;;;;;;0.10;0.10;;;;;;;;;;5021780;28;20200;-70
2021/05/05 10:27:24;;;;;;;0.10;0.10;;;;;;;;;;5021726;28;20206;-70
2021/05/05 10:29:50;;;;;;;0.10;0.10;;;;;;;;;;5026063;28;20265;-71
2021/05/05 10:32:20;;;;;;;0.10;0.10;;;;;;;;;;5016491;28;20244;-70
2021/05/05 10:34:49;;;;;;;0.10;0.10;;;;;;;;;;5024119;28;20600;-71
2021/05/05 10:37:15;;;;;;;0.10;0.10;;;;;;;;;;5034353;28;20246;-70
2021/05/05 10:39:41;;;;;;;0.10;0.10;;;;;;;;;;5015962;28;20209;-70
2021/05/05 10:42:14;;;;;;;0.10;0.10;;;;;;;;;;5012563;28;20203;-70
2021/05/05 10:44:41;;;;;;;0.10;0.10;;;;;;;;;;5014542;28;20202;-69
2021/05/05 10:47:15;;;;;;;0.10;0.10;;;;;;;;;;5021562;28;20205;-70
2021/05/05 10:50:14;;;;;;;0.10;0.10;;;;;;;;;;5028855;28;20228;-71
2021/05/05 10:52:59;;;;;;;0.10;0.10;;;;;;;;;;5018919;28;20444;-68
2021/05/05 10:55:31;;;;;;;0.10;0.10;;;;;;;;;;5027991;28;20525;-69
2021/05/05 10:58:04;;;;;;;0.10;0.10;;;;;;;;;;5016987;28;20215;-69
2021/05/05 11:00:42;;;;;;;0.10;0.10;;;;;;;;;;5018259;28;20266;-69
2021/05/05 11:03:09;;;;;;;0.10;0.10;;;;;;;;;;5012972;28;20206;-69
2021/05/05 11:05:37;;;;;;;0.10;0.10;;;;;;;;;;5011936;28;20263;-70
2021/05/05 11:08:05;;;;;;;0.10;0.10;;;;;;;;;;5023474;28;20212;-70
2021/05/05 11:10:48;;;;;;;0.10;0.10;;;;;;;;;;5020263;28;20347;-70
2021/05/05 11:13:32;;;;;;;0.50;0.50;;;;;;;;;;5022315;28;20275;-70
2021/05/05 11:16:00;;;;;;;0.10;0.10;;;;;;;;;;5023523;28;20228;-71
2021/05/05 11:18:45;;;;;;;0.10;0.10;;;;;;;;;;5023272;28;20282;-71
2021/05/05 11:21:32;;;;;;;0.10;0.10;;;;;;;;;;5005828;28;20368;-69
2021/05/05 11:23:58;;;;;;;0.00;0.00;;;;;;;;;;5030443;28;20208;-70
2021/05/05 11:26:25;;;;;;;0.10;0.10;;;;;;;;;;5028913;28;20204;-69
2021/05/05 11:28:55;;;;;;;0.10;0.10;;;;;;;;;;5030297;28;20214;-71
2021/05/05 11:31:42;;;;;;;0.57;0.57;;;;;;;;;;5023199;28;20235;-70
2021/05/05 11:34:08;;;;;;;0.10;0.10;;;;;;;;;;5024720;28;20209;-71
2021/05/05 11:36:34;;;;;;;0.10;0.10;;;;;;;;;;5019886;28;20223;-69
2021/05/05 11:39:00;;;;;;;0.07;0.07;;;;;;;;;;5020899;28;20490;-69
2021/05/05 11:41:29;;;;;;;0.10;0.10;;;;;;;;;;5017412;28;20213;-71
2021/05/05 11:43:55;;;;;;;0.10;0.10;;;;;;;;;;5017469;28;20212;-71
2021/05/05 11:46:22;;;;;;;0.10;0.10;;;;;;;;;;5019447;28;20479;-69
2021/05/05 11:48:48;;;;;;;0.10;0.10;;;;;;;;;;5015472;28;20205;-70
2021/05/05 11:51:15;;;;;;;0.00;0.00;;;;;;;;;;5017930;28;20274;-70
2021/05/05 11:53:41;;;;;;;0.10;0.10;;;;;;;;;;5017146;28;20262;-69
2021/05/05 11:56:15;;;;;;;0.05;0.05;;;;;;;;;;5017852;28;20229;-71
2021/05/05 11:58:41;;;;;;;0.00;0.00;;;;;;;;;;5018602;28;20213;-70
2021/05/05 12:01:07;;;;;;;0.10;0.10;;;;;;;;;;5015516;28;20230;-69
2021/05/05 12:03:33;;;;;;;0.10;0.10;;;;;;;;;;5024982;28;20394;-69
2021/05/05 12:05:59;;;;;;;0.00;0.00;;;;;;;;;;5016782;28;20210;-70
2021/05/05 12:08:26;;;;;;;0.10;0.10;;;;;;;;;;5003907;28;20288;-71
2021/05/05 12:10:53;;;;;;;0.10;0.10;;;;;;;;;;5017449;28;20209;-70
2021/05/05 12:13:20;;;;;;;0.00;0.00;;;;;;;;;;5010907;28;20540;-68
2021/05/05 12:15:54;;;;;;;0.10;0.10;;;;;;;;;;5016594;28;20228;-69
2021/05/05 12:18:23;;;;;;;0.00;0.00;;;;;;;;;;5008303;28;20198;-71
2021/05/05 12:20:50;;;;;;;0.03;0.03;;;;;;;;;;5020216;28;20407;-71
2021/05/05 12:23:16;;;;;;;0.10;0.10;;;;;;;;;;5013202;28;20349;-70
2021/05/05 12:25:43;;;;;;;0.10;0.10;;;;;;;;;;5020656;28;20216;-71
2021/05/05 12:28:10;;;;;;;0.10;0.10;;;;;;;;;;5031079;28;20375;-71
2021/05/05 12:30:46;;;;;;;0.03;0.03;;;;;;;;;;5017382;28;20209;-70
2021/05/05 12:33:12;;;;;;;0.10;0.10;;;;;;;;;;5025196;28;20593;-70
2021/05/05 12:35:38;;;;;;;0.10;0.10;;;;;;;;;;5026530;28;20240;-71
2021/05/05 12:38:07;;;;;;;0.30;0.30;;;;;;;;;;5024304;28;20198;-69
2021/05/05 12:40:33;;;;;;;0.10;0.10;;;;;;;;;;5020439;28;20476;-69
2021/05/05 12:43:10;;;;;;;0.10;0.10;;;;;;;;;;5026507;28;20209;-69
2021/05/05 12:45:36;;;;;;;0.13;0.13;;;;;;;;;;5033333;28;20207;-71
2021/05/05 12:48:02;;;;;;;0.10;0.10;;;;;;;;;;5016443;28;20212;-70
2021/05/05 12:50:36;;;;;;;0.07;0.07;;;;;;;;;;5030703;28;20212;-63
2021/05/05 12:53:04;;;;;;;0.10;0.10;;;;;;;;;;5014839;28;20206;-65
2021/05/05 12:55:32;;;;;;;0.10;0.10;;;;;;;;;;5013404;28;20260;-71
2021/05/05 12:58:02;;;;;;;0.00;0.00;;;;;;;;;;5019378;28;20529;-70
2021/05/05 13:00:29;;;;;;;0.10;0.10;;;;;;;;;;5012225;28;20275;-71
2021/05/05 13:03:00;;;;;;;0.10;0.10;;;;;;;;;;5017595;28;20545;-69
2021/05/05 13:05:26;;;;;;;0.10;0.10;;;;;;;;;;5018557;28;20202;-69
2021/05/05 13:07:52;;;;;;;0.10;0.10;;;;;;;;;;5018572;28;20205;-69
2021/05/05 13:10:20;;;;;;;0.10;0.10;;;;;;;;;;5012947;28;20233;-71
2021/05/05 13:12:58;;;;;;;0.10;0.10;;;;;;;;;;5014476;28;20205;-71
2021/05/05 13:15:31;;;;;;;0.10;0.10;;;;;;;;;;5022210;28;20410;-69
2021/05/05 13:18:07;;;;;;;0.10;0.10;;;;;;;;;;5012455;28;20454;-69
2021/05/05 13:20:43;;;;;;;0.10;0.10;;;;;;;;;;5026728;28;20211;-72
2021/05/05 13:26:30;;;;;;;0.10;0.10;;;;;;;;;;5020017;28;20209;-71
2021/05/05 13:31:40;;;;;;;0.10;0.10;;;;;;;;;;5020836;28;20262;-72
2021/05/05 13:34:07;;;;;;;0.10;0.10;;;;;;;;;;5018399;28;20220;-70
2021/05/05 13:36:55;;;;;;;0.10;0.10;;;;;;;;;;5022531;28;20290;-70
2021/05/05 13:39:22;;;;;;;0.10;0.10;;;;;;;;;;5019346;28;20293;-70
2021/05/05 13:41:51;;;;;;;0.10;0.10;;;;;;;;;;5021872;28;20228;-70
2021/05/05 13:44:38;;;;;;;0.10;0.10;;;;;;;;;;5021194;28;20213;-70
2021/05/05 13:47:08;;;;;;;0.10;0.10;;;;;;;;;;5019349;28;20201;-71
2021/05/05 13:49:37;;;;;;;0.10;0.10;;;;;;;;;;5032946;28;20206;-70
2021/05/05 13:52:04;;;;;;;0.10;0.10;;;;;;;;;;5037751;28;20212;-71
2021/05/05 13:54:30;;;;;;;0.10;0.10;;;;;;;;;;5030731;28;20493;-71
2021/05/05 13:56:58;;;;;;;0.10;0.10;;;;;;;;;;5022096;28;20221;-71
2021/05/05 13:59:24;;;;;;;0.10;0.10;;;;;;;;;;5030547;28;20400;-71
2021/05/05 14:01:50;;;;;;;0.10;0.10;;;;;;;;;;5010524;28;20206;-70
2021/05/05 14:04:16;;;;;;;0.10;0.10;;;;;;;;;;5031520;28;20274;-69
2021/05/05 14:06:44;;;;;;;0.10;0.10;;;;;;;;;;5021303;28;20205;-69
2021/05/05 14:09:10;;;;;;;0.10;0.10;;;;;;;;;;5023545;28;20215;-70
2021/05/05 14:11:36;;;;;;;0.33;0.33;;;;;;;;;;5023675;28;20289;-71
2021/05/05 14:14:03;;;;;;;0.10;0.10;;;;;;;;;;5008879;28;20202;-71
2021/05/05 14:16:29;;;;;;;0.10;0.10;;;;;;;;;;5026341;28;20297;-70
2021/05/05 14:18:54;;;;;;;0.10;0.10;;;;;;;;;;5038634;28;20202;-70
2021/05/05 14:21:21;;;;;;;0.10;0.10;;;;;;;;;;5019967;28;20206;-70
2021/05/05 14:23:47;;;;;;;0.10;0.10;;;;;;;;;;5008375;28;20421;-70
2021/05/05 14:26:13;;;;;;;0.10;0.10;;;;;;;;;;5015905;28;20208;-71
2021/05/05 14:28:40;;;;;;;0.10;0.10;;;;;;;;;;5014034;28;20237;-71
2021/05/05 14:31:07;;;;;;;0.10;0.10;;;;;;;;;;5018177;28;20211;-71
2021/05/05 14:33:32;;;;;;;0.10;0.10;;;;;;;;;;5021629;28;20213;-70
2021/05/05 14:35:58;;;;;;;0.10;0.10;;;;;;;;;;5023515;28;20236;-71
2021/05/05 14:38:27;;;;;;;0.10;0.10;;;;;;;;;;5021198;28;20208;-72
2021/05/05 14:40:53;;;;;;;0.10;0.10;;;;;;;;;;5015841;28;20210;-70
2021/05/05 14:43:25;;;;;;;0.10;0.10;;;;;;;;;;5029579;28;20236;-66
2021/05/05 14:46:02;;;;;;;0.10;0.10;;;;;;;;;;5021246;28;20409;-66
2021/05/05 14:48:29;;;;;;;0.10;0.10;;;;;;;;;;5016760;28;20274;-68
2021/05/05 14:50:55;;;;;;;0.10;0.10;;;;;;;;;;5028313;28;20232;-70
2021/05/05 14:53:22;;;;;;;0.10;0.10;;;;;;;;;;5023454;28;20242;-71
2021/05/05 14:55:49;;;;;;;0.10;0.10;;;;;;;;;;5023851;28;20281;-71
2021/05/05 14:58:17;;;;;;;0.10;0.10;;;;;;;;;;5018201;28;20283;-69